sensor_id;sensor_type;location;lat;lon;timestamp;temperature;humidity
5394;DHT22;2720;52.396;10.064;2023-05-27T00:00:06;7.40;99.90
5394;DHT22;2720;52.396;10.064;2023-05-27T00:02:35;7.40;99.90
5394;DHT22;2720;52.396;10.064;2023-05-27T00:05:02;7.30;99.90
5394;DHT22;2720;52.396;10.064;2023-05-27T00:07:29;7.30;99.90
5394;DHT22;2720;52.396;10.064;2023-05-27T00:09:58;7.30;99.90
5394;DHT22;2720;52.396;10.064;2023-05-27T00:12:25;7.20;99.90
5394;DHT22;2720;52.396;10.064;2023-05-27T00:14:52;7.20;99.90
5394;DHT22;2720;52.396;10.064;2023-05-27T00:17:19;7.20;99.90
5394;DHT22;2720;52.396;10.064;2023-05-27T00:19:46;7.10;99.90
5394;DHT22;2720;52.396;10.064;2023-05-27T00:22:14;7.10;99.90
5394;DHT22;2720;52.396;10.064;2023-05-27T00:24:41;7.10;99.90
5394;DHT22;2720;52.396;10.064;2023-05-27T00:27:10;7.10;99.90
5394;DHT22;2720;52.396;10.064;2023-05-27T00:29:37;7.00;99.90
5394;DHT22;2720;52.396;10.064;2023-05-27T00:32:04;6.90;99.90
5394;DHT22;2720;52.396;10.064;2023-05-27T00:34:32;7.00;99.90
5394;DHT22;2720;52.396;10.064;2023-05-27T00:37:00;7.00;99.90
5394;DHT22;2720;52.396;10.064;2023-05-27T00:39:27;6.90;99.90
5394;DHT22;2720;52.396;10.064;2023-05-27T00:41:54;6.90;99.90
5394;DHT22;2720;52.396;10.064;2023-05-27T00:44:24;7.00;99.90
5394;DHT22;2720;52.396;10.064;2023-05-27T00:46:51;7.00;99.90
5394;DHT22;2720;52.396;10.064;2023-05-27T00:49:18;6.90;99.90
5394;DHT22;2720;52.396;10.064;2023-05-27T00:51:45;6.90;99.90
5394;DHT22;2720;52.396;10.064;2023-05-27T00:54:12;6.90;99.90
5394;DHT22;2720;52.396;10.064;2023-05-27T00:56:39;6.90;99.90
5394;DHT22;2720;52.396;10.064;2023-05-27T00:59:07;6.80;99.90
5394;DHT22;2720;52.396;10.064;2023-05-27T01:01:35;6.80;99.90
5394;DHT22;2720;52.396;10.064;2023-05-27T01:04:05;6.80;99.90
5394;DHT22;2720;52.396;10.064;2023-05-27T01:06:39;6.80;99.90
5394;DHT22;2720;52.396;10.064;2023-05-27T01:09:14;6.80;99.90
5394;DHT22;2720;52.396;10.064;2023-05-27T01:11:47;6.70;99.90
5394;DHT22;2720;52.396;10.064;2023-05-27T01:14:16;6.70;99.90
5394;DHT22;2720;52.396;10.064;2023-05-27T01:16:46;6.70;99.90
5394;DHT22;2720;52.396;10.064;2023-05-27T01:19:15;6.70;99.90
5394;DHT22;2720;52.396;10.064;2023-05-27T01:21:48;6.70;99.90
5394;DHT22;2720;52.396;10.064;2023-05-27T01:24:17;6.60;99.90
5394;DHT22;2720;52.396;10.064;2023-05-27T01:26:45;6.60;99.90
5394;DHT22;2720;52.396;10.064;2023-05-27T01:29:12;6.60;99.90
5394;DHT22;2720;52.396;10.064;2023-05-27T01:31:44;6.60;99.90
5394;DHT22;2720;52.396;10.064;2023-05-27T01:34:21;6.50;99.90
5394;DHT22;2720;52.396;10.064;2023-05-27T01:36:55;6.50;99.90
5394;DHT22;2720;52.396;10.064;2023-05-27T01:39:26;6.50;99.90
5394;DHT22;2720;52.396;10.064;2023-05-27T01:41:55;6.40;99.90
5394;DHT22;2720;52.396;10.064;2023-05-27T01:44:22;6.30;99.90
5394;DHT22;2720;52.396;10.064;2023-05-27T01:46:49;6.30;99.90
5394;DHT22;2720;52.396;10.064;2023-05-27T01:49:16;6.20;99.90
5394;DHT22;2720;52.396;10.064;2023-05-27T01:51:43;6.20;99.90
5394;DHT22;2720;52.396;10.064;2023-05-27T01:54:10;6.20;99.90
5394;DHT22;2720;52.396;10.064;2023-05-27T01:56:39;6.20;99.90
5394;DHT22;2720;52.396;10.064;2023-05-27T01:59:06;6.20;99.90
5394;DHT22;2720;52.396;10.064;2023-05-27T02:01:33;6.30;99.90
5394;DHT22;2720;52.396;10.064;2023-05-27T02:04:00;6.30;99.90
5394;DHT22;2720;52.396;10.064;2023-05-27T02:06:27;6.40;99.90
5394;DHT22;2720;52.396;10.064;2023-05-27T02:08:54;6.40;99.90
5394;DHT22;2720;52.396;10.064;2023-05-27T02:11:21;6.40;99.90
5394;DHT22;2720;52.396;10.064;2023-05-27T02:13:49;6.30;99.90
5394;DHT22;2720;52.396;10.064;2023-05-27T02:16:17;6.20;99.90
5394;DHT22;2720;52.396;10.064;2023-05-27T02:18:48;6.10;99.90
5394;DHT22;2720;52.396;10.064;2023-05-27T02:21:15;6.00;99.90
5394;DHT22;2720;52.396;10.064;2023-05-27T02:23:42;6.00;99.90
5394;DHT22;2720;52.396;10.064;2023-05-27T02:26:09;6.00;99.90
5394;DHT22;2720;52.396;10.064;2023-05-27T02:28:36;5.90;99.90
5394;DHT22;2720;52.396;10.064;2023-05-27T02:31:04;5.90;99.90
5394;DHT22;2720;52.396;10.064;2023-05-27T02:33:31;5.80;99.90
5394;DHT22;2720;52.396;10.064;2023-05-27T02:35:58;5.70;99.90
5394;DHT22;2720;52.396;10.064;2023-05-27T02:38:25;5.70;99.90
5394;DHT22;2720;52.396;10.064;2023-05-27T02:40:52;5.70;99.90
5394;DHT22;2720;52.396;10.064;2023-05-27T02:43:19;5.70;99.90
5394;DHT22;2720;52.396;10.064;2023-05-27T02:45:46;5.60;99.90
5394;DHT22;2720;52.396;10.064;2023-05-27T02:48:15;5.70;99.90
5394;DHT22;2720;52.396;10.064;2023-05-27T02:50:42;5.60;99.90
5394;DHT22;2720;52.396;10.064;2023-05-27T02:53:09;5.60;99.90
5394;DHT22;2720;52.396;10.064;2023-05-27T02:55:36;5.60;99.90
5394;DHT22;2720;52.396;10.064;2023-05-27T02:58:03;5.60;99.90
5394;DHT22;2720;52.396;10.064;2023-05-27T03:00:30;5.50;99.90
5394;DHT22;2720;52.396;10.064;2023-05-27T03:02:57;5.50;99.90
5394;DHT22;2720;52.396;10.064;2023-05-27T03:05:25;5.40;99.90
5394;DHT22;2720;52.396;10.064;2023-05-27T03:07:52;5.40;99.90
5394;DHT22;2720;52.396;10.064;2023-05-27T03:10:19;5.40;99.90
5394;DHT22;2720;52.396;10.064;2023-05-27T03:12:46;5.40;99.90
5394;DHT22;2720;52.396;10.064;2023-05-27T03:15:13;5.40;99.90
5394;DHT22;2720;52.396;10.064;2023-05-27T03:17:40;5.30;99.90
5394;DHT22;2720;52.396;10.064;2023-05-27T03:20:08;5.50;99.90
5394;DHT22;2720;52.396;10.064;2023-05-27T03:22:36;5.50;99.90
5394;DHT22;2720;52.396;10.064;2023-05-27T03:25:04;5.40;99.90
5394;DHT22;2720;52.396;10.064;2023-05-27T03:27:32;5.50;99.90
5394;DHT22;2720;52.396;10.064;2023-05-27T03:29:59;5.50;99.90
5394;DHT22;2720;52.396;10.064;2023-05-27T03:32:26;5.50;99.90
5394;DHT22;2720;52.396;10.064;2023-05-27T03:34:53;5.40;99.90
5394;DHT22;2720;52.396;10.064;2023-05-27T03:37:20;5.30;99.90
5394;DHT22;2720;52.396;10.064;2023-05-27T03:39:48;5.30;99.90
5394;DHT22;2720;52.396;10.064;2023-05-27T03:42:15;5.20;99.90
5394;DHT22;2720;52.396;10.064;2023-05-27T03:44:42;5.20;99.90
5394;DHT22;2720;52.396;10.064;2023-05-27T03:47:09;5.20;99.90
5394;DHT22;2720;52.396;10.064;2023-05-27T03:49:36;5.30;99.90
5394;DHT22;2720;52.396;10.064;2023-05-27T03:52:03;5.30;99.90
5394;DHT22;2720;52.396;10.064;2023-05-27T03:54:30;5.40;99.90
5394;DHT22;2720;52.396;10.064;2023-05-27T03:56:59;5.40;99.90
5394;DHT22;2720;52.396;10.064;2023-05-27T03:59:26;5.50;99.90
5394;DHT22;2720;52.396;10.064;2023-05-27T04:01:53;5.70;99.90
5394;DHT22;2720;52.396;10.064;2023-05-27T04:04:20;5.80;99.90
5394;DHT22;2720;52.396;10.064;2023-05-27T04:06:47;5.80;99.90
5394;DHT22;2720;52.396;10.064;2023-05-27T04:09:14;5.90;99.90
5394;DHT22;2720;52.396;10.064;2023-05-27T04:11:41;6.00;99.90
5394;DHT22;2720;52.396;10.064;2023-05-27T04:14:09;6.00;99.90
5394;DHT22;2720;52.396;10.064;2023-05-27T04:16:36;6.00;99.90
5394;DHT22;2720;52.396;10.064;2023-05-27T04:19:06;6.10;99.90
5394;DHT22;2720;52.396;10.064;2023-05-27T04:21:33;6.20;99.90
5394;DHT22;2720;52.396;10.064;2023-05-27T04:24:01;6.30;99.90
5394;DHT22;2720;52.396;10.064;2023-05-27T04:26:28;6.40;99.90
5394;DHT22;2720;52.396;10.064;2023-05-27T04:28:56;6.40;99.90
5394;DHT22;2720;52.396;10.064;2023-05-27T04:31:26;6.50;99.90
5394;DHT22;2720;52.396;10.064;2023-05-27T04:33:54;6.60;99.90
5394;DHT22;2720;52.396;10.064;2023-05-27T04:36:21;6.60;99.90
5394;DHT22;2720;52.396;10.064;2023-05-27T04:38:50;6.70;99.90
5394;DHT22;2720;52.396;10.064;2023-05-27T04:41:18;6.70;99.90
5394;DHT22;2720;52.396;10.064;2023-05-27T04:43:47;6.80;99.90
5394;DHT22;2720;52.396;10.064;2023-05-27T04:46:14;6.70;99.90
5394;DHT22;2720;52.396;10.064;2023-05-27T04:48:43;6.80;99.90
5394;DHT22;2720;52.396;10.064;2023-05-27T04:51:11;6.90;99.90
5394;DHT22;2720;52.396;10.064;2023-05-27T04:53:41;7.00;99.90
5394;DHT22;2720;52.396;10.064;2023-05-27T04:56:08;7.00;99.90
5394;DHT22;2720;52.396;10.064;2023-05-27T04:58:35;7.00;99.90
5394;DHT22;2720;52.396;10.064;2023-05-27T05:01:02;7.10;99.90
5394;DHT22;2720;52.396;10.064;2023-05-27T05:03:30;7.10;99.90
5394;DHT22;2720;52.396;10.064;2023-05-27T05:06:06;7.20;99.90
5394;DHT22;2720;52.396;10.064;2023-05-27T05:08:33;7.20;99.90
5394;DHT22;2720;52.396;10.064;2023-05-27T05:11:00;7.20;99.90
5394;DHT22;2720;52.396;10.064;2023-05-27T05:13:27;7.40;99.90
5394;DHT22;2720;52.396;10.064;2023-05-27T05:15:55;7.50;99.90
5394;DHT22;2720;52.396;10.064;2023-05-27T05:18:22;7.60;99.90
5394;DHT22;2720;52.396;10.064;2023-05-27T05:20:49;7.70;99.90
5394;DHT22;2720;52.396;10.064;2023-05-27T05:23:18;7.80;99.90
5394;DHT22;2720;52.396;10.064;2023-05-27T05:25:45;7.90;99.90
5394;DHT22;2720;52.396;10.064;2023-05-27T05:28:13;8.00;99.90
5394;DHT22;2720;52.396;10.064;2023-05-27T05:30:40;8.10;99.90
5394;DHT22;2720;52.396;10.064;2023-05-27T05:33:07;8.20;99.90
5394;DHT22;2720;52.396;10.064;2023-05-27T05:35:34;8.30;99.90
5394;DHT22;2720;52.396;10.064;2023-05-27T05:38:01;8.50;99.90
5394;DHT22;2720;52.396;10.064;2023-05-27T05:40:29;8.60;99.90
5394;DHT22;2720;52.396;10.064;2023-05-27T05:42:56;8.70;99.90
5394;DHT22;2720;52.396;10.064;2023-05-27T05:45:23;8.80;99.90
5394;DHT22;2720;52.396;10.064;2023-05-27T05:47:51;8.90;99.90
5394;DHT22;2720;52.396;10.064;2023-05-27T05:50:18;9.00;99.90
5394;DHT22;2720;52.396;10.064;2023-05-27T05:52:44;9.00;99.90
5394;DHT22;2720;52.396;10.064;2023-05-27T05:55:11;9.20;99.90
5394;DHT22;2720;52.396;10.064;2023-05-27T05:57:40;9.20;99.90
5394;DHT22;2720;52.396;10.064;2023-05-27T06:00:08;9.30;99.90
5394;DHT22;2720;52.396;10.064;2023-05-27T06:02:35;9.40;99.90
5394;DHT22;2720;52.396;10.064;2023-05-27T06:05:02;9.50;99.90
5394;DHT22;2720;52.396;10.064;2023-05-27T06:07:29;9.60;99.90
5394;DHT22;2720;52.396;10.064;2023-05-27T06:09:56;9.60;99.90
5394;DHT22;2720;52.396;10.064;2023-05-27T06:12:23;9.70;99.90
5394;DHT22;2720;52.396;10.064;2023-05-27T06:14:51;9.80;99.90
5394;DHT22;2720;52.396;10.064;2023-05-27T06:17:18;9.90;99.90
5394;DHT22;2720;52.396;10.064;2023-05-27T06:19:45;10.00;99.90
5394;DHT22;2720;52.396;10.064;2023-05-27T06:22:12;10.00;99.90
5394;DHT22;2720;52.396;10.064;2023-05-27T06:24:38;10.10;99.90
5394;DHT22;2720;52.396;10.064;2023-05-27T06:27:05;10.10;99.90
5394;DHT22;2720;52.396;10.064;2023-05-27T06:29:33;10.20;99.90
5394;DHT22;2720;52.396;10.064;2023-05-27T06:32:01;10.40;99.90
5394;DHT22;2720;52.396;10.064;2023-05-27T06:34:28;10.50;99.90
5394;DHT22;2720;52.396;10.064;2023-05-27T06:36:55;10.60;99.90
5394;DHT22;2720;52.396;10.064;2023-05-27T06:39:22;10.60;99.90
5394;DHT22;2720;52.396;10.064;2023-05-27T06:41:49;10.70;99.90
5394;DHT22;2720;52.396;10.064;2023-05-27T06:44:16;10.80;99.90
5394;DHT22;2720;52.396;10.064;2023-05-27T06:46:43;10.90;99.90
5394;DHT22;2720;52.396;10.064;2023-05-27T06:49:11;11.00;99.90
5394;DHT22;2720;52.396;10.064;2023-05-27T06:51:38;11.10;99.90
5394;DHT22;2720;52.396;10.064;2023-05-27T06:54:05;11.20;99.90
5394;DHT22;2720;52.396;10.064;2023-05-27T06:56:32;11.30;99.90
5394;DHT22;2720;52.396;10.064;2023-05-27T06:58:59;11.40;99.90
5394;DHT22;2720;52.396;10.064;2023-05-27T07:01:26;11.50;99.90
5394;DHT22;2720;52.396;10.064;2023-05-27T07:03:53;11.50;99.90
5394;DHT22;2720;52.396;10.064;2023-05-27T07:06:21;11.60;99.90
5394;DHT22;2720;52.396;10.064;2023-05-27T07:08:48;11.70;99.90
5394;DHT22;2720;52.396;10.064;2023-05-27T07:11:15;11.90;99.90
5394;DHT22;2720;52.396;10.064;2023-05-27T07:13:42;12.00;99.90
5394;DHT22;2720;52.396;10.064;2023-05-27T07:16:09;12.10;99.90
5394;DHT22;2720;52.396;10.064;2023-05-27T07:18:36;12.20;99.90
5394;DHT22;2720;52.396;10.064;2023-05-27T07:21:03;12.40;99.90
5394;DHT22;2720;52.396;10.064;2023-05-27T07:23:31;12.40;99.90
5394;DHT22;2720;52.396;10.064;2023-05-27T07:25:58;12.60;99.90
5394;DHT22;2720;52.396;10.064;2023-05-27T07:28:25;12.70;99.90
5394;DHT22;2720;52.396;10.064;2023-05-27T07:30:52;12.70;99.90
5394;DHT22;2720;52.396;10.064;2023-05-27T07:33:19;12.90;99.90
5394;DHT22;2720;52.396;10.064;2023-05-27T07:35:46;12.90;99.90
5394;DHT22;2720;52.396;10.064;2023-05-27T07:38:13;12.90;99.90
5394;DHT22;2720;52.396;10.064;2023-05-27T07:40:41;13.00;99.90
5394;DHT22;2720;52.396;10.064;2023-05-27T07:43:08;13.00;99.90
5394;DHT22;2720;52.396;10.064;2023-05-27T07:45:36;13.00;99.90
5394;DHT22;2720;52.396;10.064;2023-05-27T07:48:03;13.10;99.90
5394;DHT22;2720;52.396;10.064;2023-05-27T07:50:30;13.30;99.90
5394;DHT22;2720;52.396;10.064;2023-05-27T07:52:57;13.30;99.90
5394;DHT22;2720;52.396;10.064;2023-05-27T07:55:24;13.40;99.90
5394;DHT22;2720;52.396;10.064;2023-05-27T07:57:53;13.50;99.90
5394;DHT22;2720;52.396;10.064;2023-05-27T08:00:20;13.60;99.90
5394;DHT22;2720;52.396;10.064;2023-05-27T08:02:47;13.70;99.90
5394;DHT22;2720;52.396;10.064;2023-05-27T08:05:14;13.80;99.90
5394;DHT22;2720;52.396;10.064;2023-05-27T08:07:41;13.90;99.90
5394;DHT22;2720;52.396;10.064;2023-05-27T08:10:09;14.00;99.90
5394;DHT22;2720;52.396;10.064;2023-05-27T08:12:36;14.10;99.90
5394;DHT22;2720;52.396;10.064;2023-05-27T08:15:05;14.00;99.90
5394;DHT22;2720;52.396;10.064;2023-05-27T08:17:33;14.00;99.90
5394;DHT22;2720;52.396;10.064;2023-05-27T08:20:00;14.10;99.90
5394;DHT22;2720;52.396;10.064;2023-05-27T08:22:26;14.10;99.90
5394;DHT22;2720;52.396;10.064;2023-05-27T08:24:53;14.20;99.90
5394;DHT22;2720;52.396;10.064;2023-05-27T08:27:41;14.30;99.90
5394;DHT22;2720;52.396;10.064;2023-05-27T08:30:10;14.30;99.90
5394;DHT22;2720;52.396;10.064;2023-05-27T08:32:37;14.30;99.90
5394;DHT22;2720;52.396;10.064;2023-05-27T08:35:05;14.30;99.90
5394;DHT22;2720;52.396;10.064;2023-05-27T08:37:32;14.50;99.90
5394;DHT22;2720;52.396;10.064;2023-05-27T08:39:59;14.50;99.90
5394;DHT22;2720;52.396;10.064;2023-05-27T08:42:26;14.70;99.90
5394;DHT22;2720;52.396;10.064;2023-05-27T08:44:53;14.70;99.90
5394;DHT22;2720;52.396;10.064;2023-05-27T08:47:23;14.70;99.90
5394;DHT22;2720;52.396;10.064;2023-05-27T08:49:50;15.00;99.90
5394;DHT22;2720;52.396;10.064;2023-05-27T08:52:19;15.00;99.90
5394;DHT22;2720;52.396;10.064;2023-05-27T08:54:47;15.20;99.90
5394;DHT22;2720;52.396;10.064;2023-05-27T08:57:18;15.10;99.90
5394;DHT22;2720;52.396;10.064;2023-05-27T08:59:46;15.20;99.90
5394;DHT22;2720;52.396;10.064;2023-05-27T09:02:14;15.20;99.90
5394;DHT22;2720;52.396;10.064;2023-05-27T09:04:42;15.40;99.90
5394;DHT22;2720;52.396;10.064;2023-05-27T09:07:09;15.40;99.90
5394;DHT22;2720;52.396;10.064;2023-05-27T09:09:36;15.50;99.90
5394;DHT22;2720;52.396;10.064;2023-05-27T09:12:04;15.40;99.90
5394;DHT22;2720;52.396;10.064;2023-05-27T09:14:34;15.50;99.90
5394;DHT22;2720;52.396;10.064;2023-05-27T09:17:06;15.50;99.90
5394;DHT22;2720;52.396;10.064;2023-05-27T09:19:33;15.50;99.90
5394;DHT22;2720;52.396;10.064;2023-05-27T09:22:01;15.60;99.90
5394;DHT22;2720;52.396;10.064;2023-05-27T09:24:28;15.80;99.90
5394;DHT22;2720;52.396;10.064;2023-05-27T09:26:55;15.90;99.90
5394;DHT22;2720;52.396;10.064;2023-05-27T09:29:23;16.00;99.90
5394;DHT22;2720;52.396;10.064;2023-05-27T09:31:53;16.00;99.90
5394;DHT22;2720;52.396;10.064;2023-05-27T09:34:21;16.00;99.90
5394;DHT22;2720;52.396;10.064;2023-05-27T09:36:49;16.00;99.90
5394;DHT22;2720;52.396;10.064;2023-05-27T09:39:19;16.00;99.90
5394;DHT22;2720;52.396;10.064;2023-05-27T09:41:53;16.00;99.90
5394;DHT22;2720;52.396;10.064;2023-05-27T09:44:21;16.00;99.90
5394;DHT22;2720;52.396;10.064;2023-05-27T09:46:50;16.10;99.90
5394;DHT22;2720;52.396;10.064;2023-05-27T09:49:19;16.30;99.90
5394;DHT22;2720;52.396;10.064;2023-05-27T09:51:48;16.40;99.90
5394;DHT22;2720;52.396;10.064;2023-05-27T09:54:19;16.50;99.90
5394;DHT22;2720;52.396;10.064;2023-05-27T09:56:49;16.60;99.90
5394;DHT22;2720;52.396;10.064;2023-05-27T09:59:16;16.60;99.90
5394;DHT22;2720;52.396;10.064;2023-05-27T10:01:45;16.60;99.90
5394;DHT22;2720;52.396;10.064;2023-05-27T10:04:14;16.70;99.90
5394;DHT22;2720;52.396;10.064;2023-05-27T10:06:41;16.80;99.90
5394;DHT22;2720;52.396;10.064;2023-05-27T10:09:08;16.80;99.90
5394;DHT22;2720;52.396;10.064;2023-05-27T10:11:37;16.90;99.90
5394;DHT22;2720;52.396;10.064;2023-05-27T10:14:04;17.00;99.90
5394;DHT22;2720;52.396;10.064;2023-05-27T10:16:32;17.10;99.90
5394;DHT22;2720;52.396;10.064;2023-05-27T10:19:01;17.00;99.90
5394;DHT22;2720;52.396;10.064;2023-05-27T10:21:29;17.10;99.90
5394;DHT22;2720;52.396;10.064;2023-05-27T10:23:58;17.20;99.90
5394;DHT22;2720;52.396;10.064;2023-05-27T10:26:32;17.30;99.90
5394;DHT22;2720;52.396;10.064;2023-05-27T10:29:07;17.40;99.90
5394;DHT22;2720;52.396;10.064;2023-05-27T10:31:35;17.50;99.90
5394;DHT22;2720;52.396;10.064;2023-05-27T10:34:04;17.60;99.90
5394;DHT22;2720;52.396;10.064;2023-05-27T10:36:32;17.60;99.90
5394;DHT22;2720;52.396;10.064;2023-05-27T10:39:03;17.80;99.90
5394;DHT22;2720;52.396;10.064;2023-05-27T10:41:39;18.00;99.90
5394;DHT22;2720;52.396;10.064;2023-05-27T10:44:08;17.90;99.90
5394;DHT22;2720;52.396;10.064;2023-05-27T10:46:39;17.90;99.90
5394;DHT22;2720;52.396;10.064;2023-05-27T10:49:11;17.90;99.90
5394;DHT22;2720;52.396;10.064;2023-05-27T10:51:40;17.80;99.90
5394;DHT22;2720;52.396;10.064;2023-05-27T10:54:08;17.90;99.90
5394;DHT22;2720;52.396;10.064;2023-05-27T10:56:35;18.00;99.90
5394;DHT22;2720;52.396;10.064;2023-05-27T10:59:02;18.00;99.90
5394;DHT22;2720;52.396;10.064;2023-05-27T11:01:32;18.10;99.90
5394;DHT22;2720;52.396;10.064;2023-05-27T11:03:59;18.20;99.90
5394;DHT22;2720;52.396;10.064;2023-05-27T11:06:27;18.50;99.90
5394;DHT22;2720;52.396;10.064;2023-05-27T11:08:54;18.70;99.90
5394;DHT22;2720;52.396;10.064;2023-05-27T11:11:21;18.80;99.90
5394;DHT22;2720;52.396;10.064;2023-05-27T11:13:48;19.20;99.90
5394;DHT22;2720;52.396;10.064;2023-05-27T11:16:15;19.40;99.90
5394;DHT22;2720;52.396;10.064;2023-05-27T11:18:45;19.40;99.90
5394;DHT22;2720;52.396;10.064;2023-05-27T11:21:13;19.70;99.90
5394;DHT22;2720;52.396;10.064;2023-05-27T11:23:43;19.90;99.90
5394;DHT22;2720;52.396;10.064;2023-05-27T11:26:14;20.00;99.90
5394;DHT22;2720;52.396;10.064;2023-05-27T11:28:49;20.30;99.90
5394;DHT22;2720;52.396;10.064;2023-05-27T11:31:16;20.60;99.90
5394;DHT22;2720;52.396;10.064;2023-05-27T11:33:48;20.80;99.90
5394;DHT22;2720;52.396;10.064;2023-05-27T11:36:16;20.80;99.90
5394;DHT22;2720;52.396;10.064;2023-05-27T11:38:48;20.90;99.90
5394;DHT22;2720;52.396;10.064;2023-05-27T11:41:16;20.90;99.90
5394;DHT22;2720;52.396;10.064;2023-05-27T11:43:55;21.00;99.90
5394;DHT22;2720;52.396;10.064;2023-05-27T11:46:22;21.20;98.80
5394;DHT22;2720;52.396;10.064;2023-05-27T11:48:51;21.60;99.50
5394;DHT22;2720;52.396;10.064;2023-05-27T11:51:25;22.10;98.30
5394;DHT22;2720;52.396;10.064;2023-05-27T11:53:54;22.20;97.60
5394;DHT22;2720;52.396;10.064;2023-05-27T11:56:21;22.30;97.40
5394;DHT22;2720;52.396;10.064;2023-05-27T11:58:50;22.40;97.50
5394;DHT22;2720;52.396;10.064;2023-05-27T12:01:17;22.70;97.70
5394;DHT22;2720;52.396;10.064;2023-05-27T12:03:45;22.90;96.20
5394;DHT22;2720;52.396;10.064;2023-05-27T12:06:13;22.60;96.60
5394;DHT22;2720;52.396;10.064;2023-05-27T12:08:41;22.70;96.70
5394;DHT22;2720;52.396;10.064;2023-05-27T12:11:08;22.70;96.30
5394;DHT22;2720;52.396;10.064;2023-05-27T12:13:35;22.50;96.10
5394;DHT22;2720;52.396;10.064;2023-05-27T12:16:02;22.70;96.20
5394;DHT22;2720;52.396;10.064;2023-05-27T12:18:30;22.90;95.90
5394;DHT22;2720;52.396;10.064;2023-05-27T12:20:57;23.20;95.50
5394;DHT22;2720;52.396;10.064;2023-05-27T12:23:25;23.40;94.90
5394;DHT22;2720;52.396;10.064;2023-05-27T12:25:53;23.30;95.00
5394;DHT22;2720;52.396;10.064;2023-05-27T12:28:20;23.20;94.50
5394;DHT22;2720;52.396;10.064;2023-05-27T12:30:47;23.10;94.20
5394;DHT22;2720;52.396;10.064;2023-05-27T12:33:14;23.50;94.40
5394;DHT22;2720;52.396;10.064;2023-05-27T12:35:42;23.50;94.80
5394;DHT22;2720;52.396;10.064;2023-05-27T12:38:09;23.00;94.80
5394;DHT22;2720;52.396;10.064;2023-05-27T12:40:37;23.10;94.90
5394;DHT22;2720;52.396;10.064;2023-05-27T12:43:04;23.30;94.60
5394;DHT22;2720;52.396;10.064;2023-05-27T12:45:32;23.60;94.20
5394;DHT22;2720;52.396;10.064;2023-05-27T12:47:59;24.00;92.90
5394;DHT22;2720;52.396;10.064;2023-05-27T12:50:26;24.00;94.10
5394;DHT22;2720;52.396;10.064;2023-05-27T12:52:53;23.60;94.00
5394;DHT22;2720;52.396;10.064;2023-05-27T12:55:21;23.10;93.80
5394;DHT22;2720;52.396;10.064;2023-05-27T12:57:51;23.00;94.10
5394;DHT22;2720;52.396;10.064;2023-05-27T13:00:19;23.00;94.00
5394;DHT22;2720;52.396;10.064;2023-05-27T13:02:47;23.10;94.40
5394;DHT22;2720;52.396;10.064;2023-05-27T13:05:15;23.30;93.70
5394;DHT22;2720;52.396;10.064;2023-05-27T13:07:53;23.50;93.90
5394;DHT22;2720;52.396;10.064;2023-05-27T13:10:21;23.50;93.30
5394;DHT22;2720;52.396;10.064;2023-05-27T13:12:51;23.40;93.40
5394;DHT22;2720;52.396;10.064;2023-05-27T13:15:18;23.60;94.80
5394;DHT22;2720;52.396;10.064;2023-05-27T13:17:46;23.60;93.40
5394;DHT22;2720;52.396;10.064;2023-05-27T13:20:13;23.20;93.50
5394;DHT22;2720;52.396;10.064;2023-05-27T13:22:41;23.50;94.20
5394;DHT22;2720;52.396;10.064;2023-05-27T13:25:09;23.50;93.50
5394;DHT22;2720;52.396;10.064;2023-05-27T13:27:36;23.60;93.30
5394;DHT22;2720;52.396;10.064;2023-05-27T13:30:06;24.10;93.20
5394;DHT22;2720;52.396;10.064;2023-05-27T13:32:33;24.40;95.30
5394;DHT22;2720;52.396;10.064;2023-05-27T13:35:01;24.60;92.10
5394;DHT22;2720;52.396;10.064;2023-05-27T13:37:28;24.70;94.50
5394;DHT22;2720;52.396;10.064;2023-05-27T13:39:55;24.70;91.90
5394;DHT22;2720;52.396;10.064;2023-05-27T13:42:23;24.30;91.40
5394;DHT22;2720;52.396;10.064;2023-05-27T13:44:49;23.80;92.40
5394;DHT22;2720;52.396;10.064;2023-05-27T13:47:18;23.50;92.40
5394;DHT22;2720;52.396;10.064;2023-05-27T13:49:45;23.30;92.30
5394;DHT22;2720;52.396;10.064;2023-05-27T13:52:12;23.50;92.30
5394;DHT22;2720;52.396;10.064;2023-05-27T13:54:39;24.00;93.50
5394;DHT22;2720;52.396;10.064;2023-05-27T13:57:06;24.00;92.30
5394;DHT22;2720;52.396;10.064;2023-05-27T13:59:33;24.30;92.80
5394;DHT22;2720;52.396;10.064;2023-05-27T14:02:00;24.30;91.60
5394;DHT22;2720;52.396;10.064;2023-05-27T14:04:32;24.30;91.80
5394;DHT22;2720;52.396;10.064;2023-05-27T14:06:59;24.40;92.20
5394;DHT22;2720;52.396;10.064;2023-05-27T14:09:26;24.30;91.80
5394;DHT22;2720;52.396;10.064;2023-05-27T14:11:53;24.40;91.70
5394;DHT22;2720;52.396;10.064;2023-05-27T14:14:21;24.70;91.80
5394;DHT22;2720;52.396;10.064;2023-05-27T14:16:48;24.30;91.20
5394;DHT22;2720;52.396;10.064;2023-05-27T14:19:15;24.10;91.90
5394;DHT22;2720;52.396;10.064;2023-05-27T14:21:43;24.40;96.20
5394;DHT22;2720;52.396;10.064;2023-05-27T14:24:11;24.60;92.10
5394;DHT22;2720;52.396;10.064;2023-05-27T14:26:39;24.60;91.10
5394;DHT22;2720;52.396;10.064;2023-05-27T14:29:06;24.60;91.30
5394;DHT22;2720;52.396;10.064;2023-05-27T14:31:33;24.50;91.00
5394;DHT22;2720;52.396;10.064;2023-05-27T14:34:00;24.40;90.90
5394;DHT22;2720;52.396;10.064;2023-05-27T14:36:27;24.50;91.30
5394;DHT22;2720;52.396;10.064;2023-05-27T14:38:55;24.60;91.20
5394;DHT22;2720;52.396;10.064;2023-05-27T14:41:22;24.80;91.50
5394;DHT22;2720;52.396;10.064;2023-05-27T14:43:49;25.00;89.80
5394;DHT22;2720;52.396;10.064;2023-05-27T14:46:18;25.00;90.10
5394;DHT22;2720;52.396;10.064;2023-05-27T14:48:45;24.70;89.90
5394;DHT22;2720;52.396;10.064;2023-05-27T14:51:12;24.60;89.60
5394;DHT22;2720;52.396;10.064;2023-05-27T14:53:38;25.00;89.60
5394;DHT22;2720;52.396;10.064;2023-05-27T14:56:07;25.10;90.60
5394;DHT22;2720;52.396;10.064;2023-05-27T14:58:34;25.00;90.30
5394;DHT22;2720;52.396;10.064;2023-05-27T15:01:01;24.80;90.80
5394;DHT22;2720;52.396;10.064;2023-05-27T15:03:28;24.60;91.00
5394;DHT22;2720;52.396;10.064;2023-05-27T15:05:56;24.60;90.70
5394;DHT22;2720;52.396;10.064;2023-05-27T15:08:24;24.70;90.80
5394;DHT22;2720;52.396;10.064;2023-05-27T15:10:51;25.10;90.50
5394;DHT22;2720;52.396;10.064;2023-05-27T15:13:20;25.20;90.60
5394;DHT22;2720;52.396;10.064;2023-05-27T15:15:47;25.30;90.00
5394;DHT22;2720;52.396;10.064;2023-05-27T15:18:14;25.10;90.50
5394;DHT22;2720;52.396;10.064;2023-05-27T15:20:41;25.20;90.70
5394;DHT22;2720;52.396;10.064;2023-05-27T15:23:08;25.40;94.00
5394;DHT22;2720;52.396;10.064;2023-05-27T15:25:35;25.80;90.70
5394;DHT22;2720;52.396;10.064;2023-05-27T15:28:02;25.70;90.80
5394;DHT22;2720;52.396;10.064;2023-05-27T15:30:31;25.50;90.10
5394;DHT22;2720;52.396;10.064;2023-05-27T15:32:58;25.40;90.40
5394;DHT22;2720;52.396;10.064;2023-05-27T15:35:24;25.30;91.50
5394;DHT22;2720;52.396;10.064;2023-05-27T15:37:51;25.20;90.50
5394;DHT22;2720;52.396;10.064;2023-05-27T15:40:18;25.10;90.30
5394;DHT22;2720;52.396;10.064;2023-05-27T15:42:45;25.20;90.20
5394;DHT22;2720;52.396;10.064;2023-05-27T15:45:12;25.20;90.30
5394;DHT22;2720;52.396;10.064;2023-05-27T15:47:42;25.10;90.40
5394;DHT22;2720;52.396;10.064;2023-05-27T15:50:09;25.00;90.80
5394;DHT22;2720;52.396;10.064;2023-05-27T15:52:36;25.00;90.30
5394;DHT22;2720;52.396;10.064;2023-05-27T15:55:04;24.90;90.50